sensor_id;sensor_type;location;lat;lon;timestamp;pressure;altitude;pressure_sealevel;temperature;humidity
78841;BME280;68379;47.190;27.558;2024-03-02T00:02:22;100107.65;;;5.92;73.21
78841;BME280;68379;47.190;27.558;2024-03-02T00:04:54;100109.27;;;5.90;73.32
78841;BME280;68379;47.190;27.558;2024-03-02T00:07:26;100104.02;;;5.88;73.62
78841;BME280;68379;47.190;27.558;2024-03-02T00:09:57;100106.52;;;5.87;74.08
78841;BME280;68379;47.190;27.558;2024-03-02T00:12:29;100106.02;;;5.85;74.08
78841;BME280;68379;47.190;27.558;2024-03-02T00:15:01;100104.79;;;5.84;74.14
78841;BME280;68379;47.190;27.558;2024-03-02T00:17:34;100102.00;;;5.84;73.45
78841;BME280;68379;47.190;27.558;2024-03-02T00:20:11;100100.10;;;5.82;73.28
78841;BME280;68379;47.190;27.558;2024-03-02T00:22:48;100099.59;;;5.80;73.51
78841;BME280;68379;47.190;27.558;2024-03-02T00:25:20;100098.23;;;5.79;73.39
78841;BME280;68379;47.190;27.558;2024-03-02T00:27:51;100095.29;;;5.76;73.48
78841;BME280;68379;47.190;27.558;2024-03-02T00:33:39;100094.84;;;5.71;73.54
78841;BME280;68379;47.190;27.558;2024-03-02T00:36:13;100088.39;;;5.68;73.38
78841;BME280;68379;47.190;27.558;2024-03-02T00:38:48;100091.41;;;5.66;73.41
78841;BME280;68379;47.190;27.558;2024-03-02T00:41:23;100087.60;;;5.62;73.39
78841;BME280;68379;47.190;27.558;2024-03-02T00:43:59;100080.48;;;5.59;73.47
78841;BME280;68379;47.190;27.558;2024-03-02T00:46:37;100075.06;;;5.57;73.33
78841;BME280;68379;47.190;27.558;2024-03-02T00:49:20;100071.06;;;5.56;73.31
78841;BME280;68379;47.190;27.558;2024-03-02T00:51:54;100058.66;;;5.53;73.28
78841;BME280;68379;47.190;27.558;2024-03-02T00:54:27;100055.54;;;5.51;73.38
78841;BME280;68379;47.190;27.558;2024-03-02T00:56:59;100051.88;;;5.50;73.50
78841;BME280;68379;47.190;27.558;2024-03-02T00:59:31;100051.56;;;5.47;73.43
78841;BME280;68379;47.190;27.558;2024-03-02T01:02:02;100047.02;;;5.47;73.58
78841;BME280;68379;47.190;27.558;2024-03-02T01:04:34;100035.29;;;5.45;73.88
78841;BME280;68379;47.190;27.558;2024-03-02T01:07:06;100036.56;;;5.43;73.84
78841;BME280;68379;47.190;27.558;2024-03-02T01:09:38;100042.89;;;5.41;73.91
78841;BME280;68379;47.190;27.558;2024-03-02T01:12:11;100043.27;;;5.41;74.01
78841;BME280;68379;47.190;27.558;2024-03-02T01:14:43;100045.20;;;5.40;73.84
78841;BME280;68379;47.190;27.558;2024-03-02T01:17:15;100042.92;;;5.39;73.69
78841;BME280;68379;47.190;27.558;2024-03-02T01:19:46;100034.54;;;5.37;73.57
78841;BME280;68379;47.190;27.558;2024-03-02T01:22:18;100027.90;;;5.36;73.52
78841;BME280;68379;47.190;27.558;2024-03-02T01:24:55;100028.98;;;5.34;73.41
78841;BME280;68379;47.190;27.558;2024-03-02T01:27:27;100028.50;;;5.31;73.68
78841;BME280;68379;47.190;27.558;2024-03-02T01:29:58;100026.61;;;5.29;73.58
78841;BME280;68379;47.190;27.558;2024-03-02T01:32:30;100016.65;;;5.27;73.67
78841;BME280;68379;47.190;27.558;2024-03-02T01:35:02;100016.86;;;5.24;73.63
78841;BME280;68379;47.190;27.558;2024-03-02T01:37:33;100018.81;;;5.23;73.77
78841;BME280;68379;47.190;27.558;2024-03-02T01:40:07;100018.30;;;5.21;73.33
78841;BME280;68379;47.190;27.558;2024-03-02T01:42:39;100022.00;;;5.20;73.78
78841;BME280;68379;47.190;27.558;2024-03-02T01:45:11;100018.70;;;5.19;74.07
78841;BME280;68379;47.190;27.558;2024-03-02T01:47:43;100017.65;;;5.19;73.63
78841;BME280;68379;47.190;27.558;2024-03-02T01:50:15;100017.66;;;5.18;73.89
78841;BME280;68379;47.190;27.558;2024-03-02T01:52:46;100013.80;;;5.18;73.92
78841;BME280;68379;47.190;27.558;2024-03-02T01:55:18;100011.88;;;5.18;73.94
78841;BME280;68379;47.190;27.558;2024-03-02T01:57:50;100008.02;;;5.18;73.90
78841;BME280;68379;47.190;27.558;2024-03-02T02:00:23;100003.65;;;5.17;73.82
78841;BME280;68379;47.190;27.558;2024-03-02T02:02:54;100005.06;;;5.16;74.10
78841;BME280;68379;47.190;27.558;2024-03-02T02:05:27;99999.14;;;5.16;74.23
78841;BME280;68379;47.190;27.558;2024-03-02T02:08:02;99994.58;;;5.16;74.10
78841;BME280;68379;47.190;27.558;2024-03-02T02:10:35;99999.48;;;5.15;74.23
78841;BME280;68379;47.190;27.558;2024-03-02T02:13:07;99998.27;;;5.15;74.19
78841;BME280;68379;47.190;27.558;2024-03-02T02:15:39;99994.61;;;5.13;74.05
78841;BME280;68379;47.190;27.558;2024-03-02T02:18:10;99997.10;;;5.11;74.25
78841;BME280;68379;47.190;27.558;2024-03-02T02:20:42;99997.80;;;5.10;74.38
78841;BME280;68379;47.190;27.558;2024-03-02T02:23:17;100000.95;;;5.10;74.03
78841;BME280;68379;47.190;27.558;2024-03-02T02:25:49;99997.99;;;5.09;74.17
78841;BME280;68379;47.190;27.558;2024-03-02T02:28:20;99996.95;;;5.08;74.10
78841;BME280;68379;47.190;27.558;2024-03-02T02:30:52;99998.39;;;5.07;74.30
78841;BME280;68379;47.190;27.558;2024-03-02T02:33:27;99996.99;;;5.06;74.12
78841;BME280;68379;47.190;27.558;2024-03-02T02:36:00;99990.52;;;5.05;73.78
78841;BME280;68379;47.190;27.558;2024-03-02T02:38:33;99989.17;;;5.02;73.78
78841;BME280;68379;47.190;27.558;2024-03-02T02:41:08;99990.45;;;4.98;73.91
78841;BME280;68379;47.190;27.558;2024-03-02T02:43:40;99991.23;;;4.94;73.84
78841;BME280;68379;47.190;27.558;2024-03-02T02:46:11;99988.80;;;4.91;73.80
78841;BME280;68379;47.190;27.558;2024-03-02T02:48:44;99993.59;;;4.87;73.61
78841;BME280;68379;47.190;27.558;2024-03-02T02:51:16;99994.34;;;4.83;73.74
78841;BME280;68379;47.190;27.558;2024-03-02T02:53:49;99990.52;;;4.80;73.76
78841;BME280;68379;47.190;27.558;2024-03-02T02:56:22;99984.42;;;4.78;73.85
78841;BME280;68379;47.190;27.558;2024-03-02T02:58:54;99984.29;;;4.75;74.01
78841;BME280;68379;47.190;27.558;2024-03-02T03:01:25;99989.91;;;4.74;74.38
78841;BME280;68379;47.190;27.558;2024-03-02T03:03:57;99987.45;;;4.74;74.67
78841;BME280;68379;47.190;27.558;2024-03-02T03:06:29;99983.26;;;4.74;74.54
78841;BME280;68379;47.190;27.558;2024-03-02T03:09:01;99987.11;;;4.74;74.27
78841;BME280;68379;47.190;27.558;2024-03-02T03:11:33;99982.73;;;4.74;74.54
78841;BME280;68379;47.190;27.558;2024-03-02T03:14:06;99980.61;;;4.75;74.26
78841;BME280;68379;47.190;27.558;2024-03-02T03:16:37;99979.20;;;4.75;74.66
78841;BME280;68379;47.190;27.558;2024-03-02T03:19:10;99984.27;;;4.76;74.36
78841;BME280;68379;47.190;27.558;2024-03-02T03:21:44;99984.30;;;4.75;74.34
78841;BME280;68379;47.190;27.558;2024-03-02T03:24:16;99980.81;;;4.74;74.33
78841;BME280;68379;47.190;27.558;2024-03-02T03:26:48;99977.65;;;4.74;74.25
78841;BME280;68379;47.190;27.558;2024-03-02T03:29:21;99982.40;;;4.74;74.18
78841;BME280;68379;47.190;27.558;2024-03-02T03:31:55;99978.38;;;4.73;74.43
78841;BME280;68379;47.190;27.558;2024-03-02T03:34:27;99971.73;;;4.72;74.30
78841;BME280;68379;47.190;27.558;2024-03-02T03:36:59;99970.67;;;4.72;74.35
78841;BME280;68379;47.190;27.558;2024-03-02T03:39:31;99966.81;;;4.72;74.49
78841;BME280;68379;47.190;27.558;2024-03-02T03:42:03;99963.17;;;4.71;74.64
78841;BME280;68379;47.190;27.558;2024-03-02T03:44:36;99961.40;;;4.72;74.60
78841;BME280;68379;47.190;27.558;2024-03-02T03:47:09;99960.38;;;4.70;75.22
78841;BME280;68379;47.190;27.558;2024-03-02T03:49:41;99960.91;;;4.70;74.79
78841;BME280;68379;47.190;27.558;2024-03-02T03:52:13;99955.46;;;4.71;74.88
78841;BME280;68379;47.190;27.558;2024-03-02T03:54:44;99958.41;;;4.73;74.78
78841;BME280;68379;47.190;27.558;2024-03-02T03:57:16;99951.76;;;4.73;74.75
78841;BME280;68379;47.190;27.558;2024-03-02T03:59:51;99950.88;;;4.74;74.75
78841;BME280;68379;47.190;27.558;2024-03-02T04:02:22;99947.17;;;4.75;74.82
78841;BME280;68379;47.190;27.558;2024-03-02T04:04:55;99939.64;;;4.76;74.74
78841;BME280;68379;47.190;27.558;2024-03-02T04:07:27;99940.85;;;4.77;74.66
78841;BME280;68379;47.190;27.558;2024-03-02T04:09:59;99941.71;;;4.78;74.35
78841;BME280;68379;47.190;27.558;2024-03-02T04:12:31;99946.24;;;4.80;74.48
78841;BME280;68379;47.190;27.558;2024-03-02T04:15:04;99944.13;;;4.80;74.38
78841;BME280;68379;47.190;27.558;2024-03-02T04:17:36;99947.10;;;4.81;74.20
78841;BME280;68379;47.190;27.558;2024-03-02T04:20:10;99949.55;;;4.80;74.15
78841;BME280;68379;47.190;27.558;2024-03-02T04:22:43;99951.13;;;4.80;74.08
78841;BME280;68379;47.190;27.558;2024-03-02T04:25:14;99948.33;;;4.80;73.83
78841;BME280;68379;47.190;27.558;2024-03-02T04:27:48;99945.20;;;4.79;73.92
78841;BME280;68379;47.190;27.558;2024-03-02T04:30:20;99943.81;;;4.78;73.89
78841;BME280;68379;47.190;27.558;2024-03-02T04:32:53;99946.45;;;4.77;73.82
78841;BME280;68379;47.190;27.558;2024-03-02T04:35:25;99939.46;;;4.76;73.67
78841;BME280;68379;47.190;27.558;2024-03-02T04:37:58;99942.82;;;4.74;73.50
78841;BME280;68379;47.190;27.558;2024-03-02T04:40:30;99941.61;;;4.74;73.76
78841;BME280;68379;47.190;27.558;2024-03-02T04:43:04;99940.03;;;4.73;73.63
78841;BME280;68379;47.190;27.558;2024-03-02T04:45:38;99939.87;;;4.72;73.68
78841;BME280;68379;47.190;27.558;2024-03-02T04:48:10;99939.37;;;4.71;73.57
78841;BME280;68379;47.190;27.558;2024-03-02T04:50:41;99941.48;;;4.70;73.62
78841;BME280;68379;47.190;27.558;2024-03-02T04:53:13;99944.29;;;4.70;73.57
78841;BME280;68379;47.190;27.558;2024-03-02T04:55:47;99945.15;;;4.70;73.62
78841;BME280;68379;47.190;27.558;2024-03-02T04:58:50;99947.23;;;4.72;73.48
78841;BME280;68379;47.190;27.558;2024-03-02T05:01:24;99948.97;;;4.73;73.57
78841;BME280;68379;47.190;27.558;2024-03-02T05:03:58;99956.66;;;4.73;73.52
78841;BME280;68379;47.190;27.558;2024-03-02T05:06:30;99960.34;;;4.74;73.52
78841;BME280;68379;47.190;27.558;2024-03-02T05:09:03;99959.45;;;4.74;73.53
78841;BME280;68379;47.190;27.558;2024-03-02T05:11:35;99965.05;;;4.75;73.66
78841;BME280;68379;47.190;27.558;2024-03-02T05:14:42;99970.63;;;4.75;73.53
78841;BME280;68379;47.190;27.558;2024-03-02T05:17:13;99970.10;;;4.76;73.48
78841;BME280;68379;47.190;27.558;2024-03-02T05:19:45;99968.16;;;4.77;73.49
78841;BME280;68379;47.190;27.558;2024-03-02T05:22:18;99970.60;;;4.78;73.50
78841;BME280;68379;47.190;27.558;2024-03-02T05:24:49;99972.51;;;4.79;73.50
78841;BME280;68379;47.190;27.558;2024-03-02T05:27:21;99967.63;;;4.77;73.45
78841;BME280;68379;47.190;27.558;2024-03-02T05:29:53;99968.61;;;4.82;73.31
78841;BME280;68379;47.190;27.558;2024-03-02T05:32:24;99969.14;;;4.83;73.30
78841;BME280;68379;47.190;27.558;2024-03-02T05:34:56;99977.86;;;4.84;73.43
78841;BME280;68379;47.190;27.558;2024-03-02T05:37:28;99976.79;;;4.86;73.35
78841;BME280;68379;47.190;27.558;2024-03-02T05:39:59;99978.89;;;4.86;73.43
78841;BME280;68379;47.190;27.558;2024-03-02T05:42:31;99980.45;;;4.88;73.36
78841;BME280;68379;47.190;27.558;2024-03-02T05:45:03;99981.29;;;4.90;73.22
78841;BME280;68379;47.190;27.558;2024-03-02T05:47:35;99980.92;;;4.91;73.43
78841;BME280;68379;47.190;27.558;2024-03-02T05:50:08;99978.29;;;4.91;73.28
78841;BME280;68379;47.190;27.558;2024-03-02T05:52:39;99982.13;;;4.93;73.16
78841;BME280;68379;47.190;27.558;2024-03-02T05:55:11;99979.30;;;4.94;73.22
78841;BME280;68379;47.190;27.558;2024-03-02T05:57:43;99983.48;;;4.97;73.19
78841;BME280;68379;47.190;27.558;2024-03-02T06:00:32;99984.14;;;4.98;73.28
78841;BME280;68379;47.190;27.558;2024-03-02T06:03:06;99987.80;;;5.00;73.11
78841;BME280;68379;47.190;27.558;2024-03-02T06:05:39;99983.74;;;5.01;73.25
78841;BME280;68379;47.190;27.558;2024-03-02T06:08:12;99984.77;;;5.02;73.14
78841;BME280;68379;47.190;27.558;2024-03-02T06:10:43;99985.98;;;5.05;73.04
78841;BME280;68379;47.190;27.558;2024-03-02T06:13:15;99989.94;;;5.10;72.98
78841;BME280;68379;47.190;27.558;2024-03-02T06:15:47;99989.34;;;5.14;72.82
78841;BME280;68379;47.190;27.558;2024-03-02T06:18:19;99993.85;;;5.17;72.79
78841;BME280;68379;47.190;27.558;2024-03-02T06:20:51;99995.02;;;5.20;72.68
78841;BME280;68379;47.190;27.558;2024-03-02T06:23:34;99991.13;;;5.23;72.62
78841;BME280;68379;47.190;27.558;2024-03-02T06:26:06;99993.16;;;5.28;72.51
78841;BME280;68379;47.190;27.558;2024-03-02T06:28:40;99994.36;;;5.30;72.45
78841;BME280;68379;47.190;27.558;2024-03-02T06:31:13;99998.66;;;5.36;72.43
78841;BME280;68379;47.190;27.558;2024-03-02T06:33:45;99991.58;;;5.40;72.30
78841;BME280;68379;47.190;27.558;2024-03-02T06:36:16;99991.31;;;5.45;72.24
78841;BME280;68379;47.190;27.558;2024-03-02T06:38:48;99996.19;;;5.48;72.15
78841;BME280;68379;47.190;27.558;2024-03-02T06:41:20;99996.80;;;5.52;71.95
78841;BME280;68379;47.190;27.558;2024-03-02T06:43:51;99993.94;;;5.56;71.87
78841;BME280;68379;47.190;27.558;2024-03-02T06:46:29;99990.20;;;5.60;71.77
78841;BME280;68379;47.190;27.558;2024-03-02T06:49:01;99993.63;;;5.65;71.68
78841;BME280;68379;47.190;27.558;2024-03-02T06:51:35;99993.92;;;5.68;71.39
78841;BME280;68379;47.190;27.558;2024-03-02T06:54:07;99994.55;;;5.72;71.47
78841;BME280;68379;47.190;27.558;2024-03-02T06:56:39;99992.27;;;5.72;71.58
78841;BME280;68379;47.190;27.558;2024-03-02T06:59:13;99995.96;;;5.71;70.92
78841;BME280;68379;47.190;27.558;2024-03-02T07:01:44;99998.15;;;5.77;71.47
78841;BME280;68379;47.190;27.558;2024-03-02T07:04:16;99993.90;;;5.79;71.15
78841;BME280;68379;47.190;27.558;2024-03-02T07:06:48;99992.12;;;5.81;71.06
78841;BME280;68379;47.190;27.558;2024-03-02T07:09:21;99997.13;;;5.84;71.18
78841;BME280;68379;47.190;27.558;2024-03-02T07:11:53;100001.10;;;5.89;70.80
78841;BME280;68379;47.190;27.558;2024-03-02T07:14:24;100008.35;;;5.97;70.79
78841;BME280;68379;47.190;27.558;2024-03-02T07:17:17;100005.61;;;6.03;70.78
78841;BME280;68379;47.190;27.558;2024-03-02T07:19:49;100007.23;;;6.11;70.28
78841;BME280;68379;47.190;27.558;2024-03-02T07:22:20;100002.17;;;6.18;70.38
78841;BME280;68379;47.190;27.558;2024-03-02T07:24:53;100011.51;;;6.26;70.38
78841;BME280;68379;47.190;27.558;2024-03-02T07:27:24;100008.86;;;6.35;70.18
78841;BME280;68379;47.190;27.558;2024-03-02T07:29:56;100010.29;;;6.43;70.20
78841;BME280;68379;47.190;27.558;2024-03-02T07:32:27;100009.98;;;6.50;69.79
78841;BME280;68379;47.190;27.558;2024-03-02T07:34:59;100008.39;;;6.59;69.89
78841;BME280;68379;47.190;27.558;2024-03-02T07:37:31;100007.17;;;6.67;69.61
78841;BME280;68379;47.190;27.558;2024-03-02T07:40:03;100007.74;;;6.73;69.72
78841;BME280;68379;47.190;27.558;2024-03-02T07:42:35;100007.95;;;6.80;68.99
78841;BME280;68379;47.190;27.558;2024-03-02T07:45:08;100006.90;;;6.88;69.15
78841;BME280;68379;47.190;27.558;2024-03-02T07:47:39;100004.80;;;6.96;69.38
78841;BME280;68379;47.190;27.558;2024-03-02T07:50:12;100005.02;;;7.02;68.40
78841;BME280;68379;47.190;27.558;2024-03-02T07:52:43;100008.88;;;7.10;68.72
78841;BME280;68379;47.190;27.558;2024-03-02T07:55:16;100007.98;;;7.18;68.23
78841;BME280;68379;47.190;27.558;2024-03-02T07:57:48;100004.99;;;7.26;68.98
78841;BME280;68379;47.190;27.558;2024-03-02T08:00:21;100007.47;;;7.25;69.02
78841;BME280;68379;47.190;27.558;2024-03-02T08:02:52;100007.23;;;7.28;67.68
78841;BME280;68379;47.190;27.558;2024-03-02T08:05:25;100004.14;;;7.32;68.38
78841;BME280;68379;47.190;27.558;2024-03-02T08:07:57;100001.70;;;7.32;68.79
78841;BME280;68379;47.190;27.558;2024-03-02T08:10:30;100003.46;;;7.32;67.78
78841;BME280;68379;47.190;27.558;2024-03-02T08:13:03;100006.88;;;7.36;67.68
78841;BME280;68379;47.190;27.558;2024-03-02T08:15:35;100000.10;;;7.40;67.66
78841;BME280;68379;47.190;27.558;2024-03-02T08:18:07;99993.61;;;7.47;67.56
78841;BME280;68379;47.190;27.558;2024-03-02T08:20:39;99988.98;;;7.49;68.31
78841;BME280;68379;47.190;27.558;2024-03-02T08:23:11;99986.63;;;7.45;67.90
78841;BME280;68379;47.190;27.558;2024-03-02T08:25:44;99992.21;;;7.47;67.61
78841;BME280;68379;47.190;27.558;2024-03-02T08:28:15;99988.64;;;7.49;67.39
78841;BME280;68379;47.190;27.558;2024-03-02T08:30:47;99988.80;;;7.49;67.51
78841;BME280;68379;47.190;27.558;2024-03-02T08:33:19;99985.24;;;7.51;67.36
78841;BME280;68379;47.190;27.558;2024-03-02T08:35:50;99984.32;;;7.53;66.95
78841;BME280;68379;47.190;27.558;2024-03-02T08:38:22;99988.16;;;7.54;66.98
78841;BME280;68379;47.190;27.558;2024-03-02T08:40:53;99986.67;;;7.57;66.29
78841;BME280;68379;47.190;27.558;2024-03-02T08:43:26;99988.84;;;7.62;66.66
78841;BME280;68379;47.190;27.558;2024-03-02T08:45:57;99987.34;;;7.59;66.25
78841;BME280;68379;47.190;27.558;2024-03-02T08:48:30;99984.24;;;7.56;66.61
78841;BME280;68379;47.190;27.558;2024-03-02T08:51:02;99977.84;;;7.52;65.60
78841;BME280;68379;47.190;27.558;2024-03-02T08:53:35;99977.23;;;7.48;65.40
78841;BME280;68379;47.190;27.558;2024-03-02T08:56:08;99978.52;;;7.46;66.17
78841;BME280;68379;47.190;27.558;2024-03-02T08:58:39;99972.98;;;7.49;65.64
78841;BME280;68379;47.190;27.558;2024-03-02T09:01:11;99976.44;;;7.52;65.79
78841;BME280;68379;47.190;27.558;2024-03-02T09:03:43;99972.75;;;7.51;65.61
78841;BME280;68379;47.190;27.558;2024-03-02T09:06:14;99976.11;;;7.50;65.23
78841;BME280;68379;47.190;27.558;2024-03-02T09:08:47;99972.67;;;7.47;64.16
78841;BME280;68379;47.190;27.558;2024-03-02T09:11:21;99971.67;;;7.45;64.77
78841;BME280;68379;47.190;27.558;2024-03-02T09:13:53;99971.71;;;7.44;64.30
78841;BME280;68379;47.190;27.558;2024-03-02T09:16:27;99972.19;;;7.46;64.81
78841;BME280;68379;47.190;27.558;2024-03-02T09:19:01;99973.14;;;7.50;64.58
78841;BME280;68379;47.190;27.558;2024-03-02T09:21:32;99971.56;;;7.57;64.50
78841;BME280;68379;47.190;27.558;2024-03-02T09:24:05;99971.55;;;7.64;64.60
78841;BME280;68379;47.190;27.558;2024-03-02T09:26:37;99973.64;;;7.72;65.01
78841;BME280;68379;47.190;27.558;2024-03-02T09:29:08;99972.14;;;7.75;64.75
78841;BME280;68379;47.190;27.558;2024-03-02T09:31:42;99972.21;;;7.80;64.72
78841;BME280;68379;47.190;27.558;2024-03-02T09:34:12;99972.26;;;7.85;64.03
78841;BME280;68379;47.190;27.558;2024-03-02T09:36:44;99970.27;;;7.87;63.57
78841;BME280;68379;47.190;27.558;2024-03-02T09:39:16;99968.88;;;7.86;63.87
78841;BME280;68379;47.190;27.558;2024-03-02T09:41:48;99971.99;;;7.88;63.88
78841;BME280;68379;47.190;27.558;2024-03-02T09:44:20;99968.36;;;7.92;64.35
78841;BME280;68379;47.190;27.558;2024-03-02T09:46:52;99969.56;;;7.94;63.98
78841;BME280;68379;47.190;27.558;2024-03-02T09:49:24;99965.66;;;7.94;64.23
78841;BME280;68379;47.190;27.558;2024-03-02T09:51:56;99965.42;;;7.97;64.22
78841;BME280;68379;47.190;27.558;2024-03-02T09:54:27;99967.48;;;7.99;63.72
78841;BME280;68379;47.190;27.558;2024-03-02T09:56:59;99964.58;;;8.02;63.80
78841;BME280;68379;47.190;27.558;2024-03-02T09:59:31;99965.63;;;8.03;63.36
78841;BME280;68379;47.190;27.558;2024-03-02T10:02:04;99967.36;;;8.04;63.28
78841;BME280;68379;47.190;27.558;2024-03-02T10:04:37;99964.79;;;8.08;63.52
78841;BME280;68379;47.190;27.558;2024-03-02T10:07:16;99959.73;;;8.12;63.04
78841;BME280;68379;47.190;27.558;2024-03-02T10:09:48;99957.78;;;8.19;62.60
78841;BME280;68379;47.190;27.558;2024-03-02T10:12:22;99956.67;;;8.21;62.94
78841;BME280;68379;47.190;27.558;2024-03-02T10:15:04;99954.20;;;8.21;62.80
78841;BME280;68379;47.190;27.558;2024-03-02T10:17:37;99953.71;;;8.27;62.70
78841;BME280;68379;47.190;27.558;2024-03-02T10:20:25;99949.38;;;8.31;62.63
78841;BME280;68379;47.190;27.558;2024-03-02T10:23:11;99944.90;;;8.33;62.44
78841;BME280;68379;47.190;27.558;2024-03-02T10:25:43;99940.55;;;8.37;63.09
78841;BME280;68379;47.190;27.558;2024-03-02T10:28:16;99940.63;;;8.42;63.16
78841;BME280;68379;47.190;27.558;2024-03-02T10:30:49;99938.00;;;8.41;63.02
78841;BME280;68379;47.190;27.558;2024-03-02T10:33:22;99932.52;;;8.42;62.47
78841;BME280;68379;47.190;27.558;2024-03-02T10:35:56;99930.79;;;8.47;62.93
78841;BME280;68379;47.190;27.558;2024-03-02T10:38:29;99927.70;;;8.50;62.68
78841;BME280;68379;47.190;27.558;2024-03-02T10:41:01;99927.81;;;8.52;62.27
78841;BME280;68379;47.190;27.558;2024-03-02T10:43:34;99923.05;;;8.58;62.64
78841;BME280;68379;47.190;27.558;2024-03-02T10:46:06;99921.72;;;8.62;62.73
78841;BME280;68379;47.190;27.558;2024-03-02T10:48:38;99917.95;;;8.65;62.83
78841;BME280;68379;47.190;27.558;2024-03-02T10:51:11;99918.00;;;8.68;62.62
78841;BME280;68379;47.190;27.558;2024-03-02T10:53:43;99916.30;;;8.73;62.34
78841;BME280;68379;47.190;27.558;2024-03-02T10:56:26;99916.91;;;8.81;62.73
78841;BME280;68379;47.190;27.558;2024-03-02T10:59:06;99917.31;;;8.85;61.92
78841;BME280;68379;47.190;27.558;2024-03-02T11:01:47;99919.65;;;8.95;61.93
78841;BME280;68379;47.190;27.558;2024-03-02T11:04:20;99920.52;;;9.01;61.66
78841;BME280;68379;47.190;27.558;2024-03-02T11:06:54;99921.56;;;9.07;61.57
78841;BME280;68379;47.190;27.558;2024-03-02T11:09:29;99919.22;;;9.14;61.73
78841;BME280;68379;47.190;27.558;2024-03-02T11:12:06;99920.61;;;9.15;61.07
78841;BME280;68379;47.190;27.558;2024-03-02T11:14:42;99920.27;;;9.20;60.58
78841;BME280;68379;47.190;27.558;2024-03-02T11:17:15;99919.77;;;9.24;60.61
78841;BME280;68379;47.190;27.558;2024-03-02T11:19:46;99918.55;;;9.30;60.74
78841;BME280;68379;47.190;27.558;2024-03-02T11:22:18;99918.47;;;9.32;60.23
78841;BME280;68379;47.190;27.558;2024-03-02T11:24:53;99916.95;;;9.35;59.89
78841;BME280;68379;47.190;27.558;2024-03-02T11:28:01;99919.24;;;9.41;60.16
78841;BME280;68379;47.190;27.558;2024-03-02T11:30:53;99916.59;;;9.46;59.13
78841;BME280;68379;47.190;27.558;2024-03-02T11:33:28;99914.01;;;9.49;59.24
78841;BME280;68379;47.190;27.558;2024-03-02T11:36:02;99914.14;;;9.51;59.53
78841;BME280;68379;47.190;27.558;2024-03-02T11:38:35;99912.27;;;9.54;59.43
78841;BME280;68379;47.190;27.558;2024-03-02T11:41:08;99902.02;;;9.59;60.11
78841;BME280;68379;47.190;27.558;2024-03-02T11:43:44;99900.09;;;9.59;59.71
78841;BME280;68379;47.190;27.558;2024-03-02T11:46:16;99902.13;;;9.62;59.64
78841;BME280;68379;47.190;27.558;2024-03-02T11:48:48;99898.95;;;9.61;60.43
78841;BME280;68379;47.190;27.558;2024-03-02T11:51:19;99899.88;;;9.55;59.45
78841;BME280;68379;47.190;27.558;2024-03-02T11:53:51;99896.98;;;9.57;59.21
78841;BME280;68379;47.190;27.558;2024-03-02T11:56:26;99896.67;;;9.61;59.07
78841;BME280;68379;47.190;27.558;2024-03-02T11:58:58;99896.48;;;9.67;58.55
78841;BME280;68379;47.190;27.558;2024-03-02T12:01:31;99899.02;;;9.70;59.10
78841;BME280;68379;47.190;27.558;2024-03-02T12:04:06;99901.21;;;9.73;59.29
78841;BME280;68379;47.190;27.558;2024-03-02T12:06:39;99903.47;;;9.74;59.28
78841;BME280;68379;47.190;27.558;2024-03-02T12:09:13;99901.70;;;9.74;58.91
78841;BME280;68379;47.190;27.558;2024-03-02T12:11:43;99896.06;;;9.74;58.15
78841;BME280;68379;47.190;27.558;2024-03-02T12:14:15;99896.20;;;9.75;57.17
78841;BME280;68379;47.190;27.558;2024-03-02T12:16:47;99892.44;;;9.81;57.89
78841;BME280;68379;47.190;27.558;2024-03-02T12:19:22;99892.94;;;9.87;57.98
78841;BME280;68379;47.190;27.558;2024-03-02T12:21:53;99894.85;;;9.93;57.87
78841;BME280;68379;47.190;27.558;2024-03-02T12:24:26;99895.65;;;9.95;57.56
78841;BME280;68379;47.190;27.558;2024-03-02T12:26:58;99896.25;;;9.98;57.35
78841;BME280;68379;47.190;27.558;2024-03-02T12:29:30;99897.34;;;10.03;57.36
78841;BME280;68379;47.190;27.558;2024-03-02T12:32:02;99898.36;;;10.03;57.35
78841;BME280;68379;47.190;27.558;2024-03-02T12:34:34;99895.06;;;10.02;57.19
78841;BME280;68379;47.190;27.558;2024-03-02T12:37:06;99895.70;;;10.04;56.99
78841;BME280;68379;47.190;27.558;2024-03-02T12:39:38;99895.48;;;10.04;57.35
78841;BME280;68379;47.190;27.558;2024-03-02T12:42:11;99894.95;;;10.05;57.27
78841;BME280;68379;47.190;27.558;2024-03-02T12:44:43;99897.23;;;10.05;57.48
78841;BME280;68379;47.190;27.558;2024-03-02T12:47:14;99898.81;;;10.01;56.66
78841;BME280;68379;47.190;27.558;2024-03-02T12:49:46;99897.96;;;10.00;56.81
78841;BME280;68379;47.190;27.558;2024-03-02T12:52:17;99895.41;;;9.97;56.67
78841;BME280;68379;47.190;27.558;2024-03-02T12:54:49;99897.02;;;9.91;57.19
78841;BME280;68379;47.190;27.558;2024-03-02T12:57:24;99894.61;;;9.84;56.95
78841;BME280;68379;47.190;27.558;2024-03-02T12:59:56;99892.76;;;9.82;56.83
78841;BME280;68379;47.190;27.558;2024-03-02T13:02:31;99888.09;;;9.79;56.46
78841;BME280;68379;47.190;27.558;2024-03-02T13:05:04;99893.83;;;9.77;56.80
78841;BME280;68379;47.190;27.558;2024-03-02T13:07:41;99896.24;;;9.73;56.59
78841;BME280;68379;47.190;27.558;2024-03-02T13:10:17;99893.59;;;9.68;56.66
78841;BME280;68379;47.190;27.558;2024-03-02T13:12:48;99895.59;;;9.67;56.67
78841;BME280;68379;47.190;27.558;2024-03-02T13:15:21;99894.81;;;9.64;56.62
78841;BME280;68379;47.190;27.558;2024-03-02T13:17:52;99894.90;;;9.61;56.45
78841;BME280;68379;47.190;27.558;2024-03-02T13:20:25;99893.67;;;9.61;56.66
78841;BME280;68379;47.190;27.558;2024-03-02T13:23:02;99893.09;;;9.57;56.46
78841;BME280;68379;47.190;27.558;2024-03-02T13:25:33;99898.27;;;9.56;56.57
78841;BME280;68379;47.190;27.558;2024-03-02T13:28:06;99894.73;;;9.51;55.83
78841;BME280;68379;47.190;27.558;2024-03-02T13:30:38;99898.52;;;9.49;56.03
78841;BME280;68379;47.190;27.558;2024-03-02T13:33:10;99900.09;;;9.43;56.23